createdAt,value
2022-11-01T00:00:32.947Z,16.7
2022-11-01T00:01:49.245Z,20.5
2022-11-01T00:03:05.538Z,16.1
2022-11-01T00:04:21.825Z,14.1
2022-11-01T00:05:38.114Z,15.7
2022-11-01T00:06:54.408Z,20
2022-11-01T00:08:10.713Z,18.5
2022-11-01T00:09:26.993Z,18
2022-11-01T00:10:43.294Z,15.4
2022-11-01T00:11:59.581Z,15.5
2022-11-01T00:13:15.866Z,19.5
2022-11-01T00:14:31.184Z,16.5
2022-11-01T00:15:47.485Z,19.4
2022-11-01T00:17:03.778Z,18.8
2022-11-01T00:18:20.053Z,18.4
2022-11-01T00:19:36.346Z,14.4
2022-11-01T00:20:52.636Z,13.6
2022-11-01T00:22:08.950Z,16.8
2022-11-01T00:23:25.000Z,16.8
2022-11-01T00:24:41.524Z,17.4
2022-11-01T00:25:57.815Z,23
2022-11-01T00:27:14.102Z,18.6
2022-11-01T00:28:30.403Z,20
2022-11-01T00:29:46.685Z,19.7
2022-11-01T00:31:02.000Z,18.9
2022-11-01T00:32:18.304Z,18.4
2022-11-01T00:33:34.581Z,18.3
2022-11-01T00:34:50.879Z,20.1
2022-11-01T00:36:07.179Z,15.4
2022-11-01T00:37:23.474Z,15.8
2022-11-01T00:38:39.763Z,15.4
2022-11-01T00:39:56.049Z,15.5
2022-11-01T00:41:12.348Z,18.1
2022-11-01T00:42:28.000Z,17.8
2022-11-01T00:43:44.917Z,19.8
2022-11-01T00:45:01.229Z,16
2022-11-01T00:46:17.504Z,18.4
2022-11-01T00:47:32.830Z,14.4
2022-11-01T00:48:49.105Z,13.9
2022-11-01T00:50:05.414Z,19.5
2022-11-01T00:51:21.000Z,14.2
2022-11-01T00:52:37.990Z,18
2022-11-01T00:53:54.288Z,15.9
2022-11-01T00:55:10.584Z,16.9
2022-11-01T00:56:26.864Z,15.4
2022-11-01T00:57:43.166Z,14.5
2022-11-01T00:58:59.459Z,13.6
2022-11-01T01:00:15.753Z,13.5
2022-11-01T01:01:32.050Z,14.1
2022-11-01T01:02:48.342Z,17.1
2022-11-01T01:04:03.640Z,15.4
2022-11-01T01:05:19.916Z,14.8
2022-11-01T01:06:36.206Z,18.1
2022-11-01T01:07:52.496Z,15.5
2022-11-01T01:09:08.794Z,14.6
2022-11-01T01:10:25.085Z,15.6
2022-11-01T01:11:41.378Z,16.2
2022-11-01T01:12:57.675Z,16.6
2022-11-01T01:14:13.954Z,13.3
2022-11-01T01:15:30.262Z,14
2022-11-01T01:16:46.539Z,15
2022-11-01T01:18:02.833Z,14.5
2022-11-01T01:19:19.145Z,15.3
2022-11-01T01:20:34.454Z,14.4
2022-11-01T01:21:50.737Z,16
2022-11-01T01:23:07.021Z,21.4
2022-11-01T01:24:23.318Z,19.4
2022-11-01T01:25:39.619Z,26.4
2022-11-01T01:26:55.896Z,25.1
2022-11-01T01:28:12.194Z,18.8
2022-11-01T01:29:28.482Z,19.3
2022-11-01T01:30:44.779Z,16.7
2022-11-01T01:32:01.075Z,15.4
2022-11-01T01:33:17.376Z,13.7
2022-11-01T01:34:33.655Z,15.4
2022-11-01T01:35:49.962Z,16.8
2022-11-01T01:37:05.265Z,17.2
2022-11-01T01:38:21.564Z,16.9
2022-11-01T01:39:37.853Z,14.3
2022-11-01T01:40:54.139Z,15
2022-11-01T01:43:26.728Z,23.3
2022-11-01T01:44:43.022Z,15.9
2022-11-01T01:45:59.314Z,14
2022-11-01T01:47:15.594Z,17.4
2022-11-01T01:48:31.889Z,20.9
2022-11-01T01:49:48.190Z,14.7
2022-11-01T01:51:04.473Z,17.8
2022-11-01T01:52:20.770Z,13.8
2022-11-01T01:53:36.083Z,14.2
2022-11-01T01:54:52.379Z,16
2022-11-01T01:56:08.662Z,15.6
2022-11-01T01:57:24.967Z,17
2022-11-01T01:58:41.251Z,22.3
2022-11-01T01:59:57.545Z,15.6
2022-11-01T02:01:13.834Z,17.1
2022-11-01T02:02:30.132Z,14.3
2022-11-01T02:03:46.422Z,16
2022-11-01T02:05:02.720Z,16.9
2022-11-01T02:06:19.016Z,15.4
2022-11-01T02:07:35.305Z,16.8
2022-11-01T02:08:51.585Z,13.8
2022-11-01T02:10:06.911Z,14.1
2022-11-01T02:11:23.184Z,16.4
2022-11-01T02:12:39.481Z,15.7
2022-11-01T02:13:55.789Z,18.5
2022-11-01T02:15:12.074Z,18
2022-11-01T02:16:28.362Z,20.7
2022-11-01T02:17:44.661Z,13.2
2022-11-01T02:19:00.951Z,18.1
2022-11-01T02:20:17.249Z,15.4
2022-11-01T02:21:33.535Z,14.4
2022-11-01T02:22:49.824Z,14.4
2022-11-01T02:24:06.120Z,12.2
2022-11-01T02:25:22.412Z,19.6
2022-11-01T02:26:37.722Z,14.1
2022-11-01T02:27:54.014Z,15.1
2022-11-01T02:29:10.300Z,15.4
2022-11-01T02:30:26.609Z,15.5
2022-11-01T02:31:42.899Z,13.1
2022-11-01T02:32:59.190Z,13.9
2022-11-01T02:34:14.498Z,12.4
2022-11-01T02:35:30.784Z,15.1
2022-11-01T02:36:47.077Z,16.5
2022-11-01T02:38:03.378Z,15
2022-11-01T02:39:19.678Z,18.1
2022-11-01T02:40:35.954Z,13.6
2022-11-01T02:41:52.249Z,18.9
2022-11-01T02:43:08.539Z,17
2022-11-01T02:44:24.845Z,14.4
2022-11-01T02:45:41.138Z,13.3
2022-11-01T02:46:57.415Z,13.9
2022-11-01T02:48:13.722Z,12.5
2022-11-01T02:49:30.000Z,14.3
2022-11-01T02:50:45.315Z,14
2022-11-01T02:52:01.616Z,14.4
2022-11-01T02:53:17.904Z,13.1
2022-11-01T02:54:34.206Z,15.6
2022-11-01T02:55:50.493Z,16.1
2022-11-01T02:57:06.786Z,17.2
2022-11-01T02:58:23.083Z,15
2022-11-01T02:59:39.374Z,14
2022-11-01T03:00:55.664Z,11.5
2022-11-01T03:02:11.945Z,14.2
2022-11-01T03:03:28.248Z,14
2022-11-01T03:04:44.532Z,14
2022-11-01T03:06:00.827Z,13.4
2022-11-01T03:07:16.138Z,14.4
2022-11-01T03:08:32.442Z,13.6
2022-11-01T03:09:48.717Z,16.7
2022-11-01T03:11:05.024Z,13.1
2022-11-01T03:12:21.317Z,11.2
2022-11-01T03:14:53.897Z,13
2022-11-01T03:16:10.196Z,14.9
2022-11-01T03:17:26.477Z,10.7
2022-11-01T03:18:42.763Z,10.9
2022-11-01T03:19:59.054Z,15.9
2022-11-01T03:21:15.350Z,12.4
2022-11-01T03:22:31.656Z,14.2
2022-11-01T03:23:46.957Z,9.8
2022-11-01T03:25:03.244Z,14.7
2022-11-01T03:26:19.549Z,12
2022-11-01T03:27:35.842Z,9.9
2022-11-01T03:28:52.132Z,11.4
2022-11-01T03:30:08.419Z,13
2022-11-01T03:31:24.707Z,11.7
2022-11-01T03:32:41.016Z,11.9
2022-11-01T03:33:57.297Z,12
2022-11-01T03:35:13.586Z,13.2
2022-11-01T03:36:29.882Z,13.8
2022-11-01T03:37:46.181Z,9.2
2022-11-01T03:39:02.480Z,11.5
2022-11-01T03:40:17.786Z,9.7
2022-11-01T03:41:34.078Z,9.5
2022-11-01T03:42:50.363Z,12.1
2022-11-01T03:44:06.655Z,11.2
2022-11-01T03:45:22.958Z,10.2
2022-11-01T03:46:39.251Z,10.9
2022-11-01T03:47:55.545Z,10.2
2022-11-01T03:49:11.831Z,11
2022-11-01T03:50:28.128Z,8.5
2022-11-01T03:51:44.407Z,12
2022-11-01T03:53:00.701Z,9.9
2022-11-01T03:54:17.003Z,10.9
2022-11-01T03:55:33.297Z,12.3
2022-11-01T03:56:48.608Z,9.7
2022-11-01T03:58:04.890Z,9.5
2022-11-01T03:59:21.191Z,12.5
2022-11-01T04:00:37.487Z,11
2022-11-01T04:01:53.773Z,10.1
2022-11-01T04:03:10.069Z,10.9
2022-11-01T04:04:26.347Z,10.9
2022-11-01T04:05:42.640Z,9.4
2022-11-01T04:06:58.944Z,11.1
2022-11-01T04:08:15.229Z,10.3
2022-11-01T04:09:31.535Z,7.6
2022-11-01T04:10:47.827Z,7.9
2022-11-01T04:12:04.111Z,9.4
2022-11-01T04:13:19.410Z,11.8
2022-11-01T04:14:35.715Z,8.1
2022-11-01T04:15:52.012Z,9.6
2022-11-01T04:17:08.298Z,9.1
2022-11-01T04:18:24.586Z,10.2
2022-11-01T04:19:40.884Z,8.4
2022-11-01T04:20:57.179Z,11.4
2022-11-01T04:22:13.470Z,12.8
2022-11-01T04:23:29.758Z,10.5
2022-11-01T04:24:46.062Z,8.7
2022-11-01T04:26:02.346Z,8
2022-11-01T04:27:18.631Z,11.5
2022-11-01T04:29:51.232Z,10.8
2022-11-01T04:31:06.524Z,11.2
2022-11-01T04:32:22.816Z,7.5
2022-11-01T04:33:39.116Z,8.9
2022-11-01T04:34:55.410Z,8.8
2022-11-01T04:36:11.702Z,9.2
2022-11-01T04:37:27.983Z,14
2022-11-01T04:38:44.290Z,9.6
2022-11-01T04:40:00.580Z,6.3
2022-11-01T04:41:16.874Z,8.2
2022-11-01T04:42:33.162Z,12.3
2022-11-01T04:43:49.448Z,10.5
2022-11-01T04:45:05.746Z,12.1
2022-11-01T04:46:22.043Z,10.9
2022-11-01T04:47:37.358Z,8.7
2022-11-01T04:48:53.634Z,9
2022-11-01T04:50:09.938Z,11.8
2022-11-01T04:51:26.228Z,10.8
2022-11-01T04:52:42.511Z,6.7
2022-11-01T04:53:58.809Z,7.7
2022-11-01T04:55:15.113Z,14.7
2022-11-01T04:56:31.396Z,14.6
2022-11-01T04:57:47.688Z,6.6
2022-11-01T04:59:03.983Z,9.8
2022-11-01T05:00:20.268Z,7
2022-11-01T05:01:36.561Z,8.6
2022-11-01T05:02:52.862Z,10.6
2022-11-01T05:04:08.159Z,8.5
2022-11-01T05:05:24.463Z,8.6
2022-11-01T05:06:40.756Z,12.7
2022-11-01T05:07:57.040Z,12.5
2022-11-01T05:09:13.342Z,9.3
2022-11-01T05:10:29.639Z,12.3
2022-11-01T05:11:45.927Z,10.9
2022-11-01T05:13:02.227Z,7.4
2022-11-01T05:14:18.503Z,8.8
2022-11-01T05:15:34.813Z,9.8
2022-11-01T05:16:51.107Z,11.5
2022-11-01T05:18:07.384Z,9.2
2022-11-01T05:19:23.678Z,10.4
2022-11-01T05:20:38.989Z,7.9
2022-11-01T05:21:55.279Z,11.1
2022-11-01T05:23:11.572Z,8.4
2022-11-01T05:24:27.858Z,13.6
2022-11-01T05:25:44.158Z,9.8
2022-11-01T05:27:00.446Z,10.7
2022-11-01T05:28:16.747Z,9.4
2022-11-01T05:29:33.031Z,9.4
2022-11-01T05:30:49.324Z,12.2
2022-11-01T05:32:05.614Z,7.2
2022-11-01T05:33:21.921Z,9.5
2022-11-01T05:34:38.159Z,13.8
2022-11-01T05:35:54.405Z,7.9
2022-11-01T05:37:09.667Z,6.4
2022-11-01T05:38:25.894Z,9
2022-11-01T05:39:42.131Z,10.3
2022-11-01T05:40:58.372Z,14
2022-11-01T05:42:14.613Z,9.8
2022-11-01T05:43:30.843Z,8.2
2022-11-01T05:44:47.096Z,9.6
2022-11-01T05:46:03.339Z,8.4
2022-11-01T05:47:19.574Z,8.4
2022-11-01T05:48:35.797Z,9.9
2022-11-01T05:49:52.053Z,10.2
2022-11-01T05:51:08.280Z,9.9
2022-11-01T05:52:24.516Z,10.2
2022-11-01T05:53:39.772Z,11.8
2022-11-01T05:54:56.010Z,8
2022-11-01T05:56:12.261Z,6.2
2022-11-01T05:57:28.487Z,10.9
2022-11-01T05:58:44.723Z,10.1
2022-11-01T06:00:00.979Z,10.4
2022-11-01T06:01:17.198Z,8.7
2022-11-01T06:02:33.439Z,13.8
2022-11-01T06:03:49.687Z,8.9
2022-11-01T06:05:05.924Z,9.4
2022-11-01T06:06:22.162Z,9.5
2022-11-01T06:07:38.395Z,7.4
2022-11-01T06:08:54.632Z,7.1
2022-11-01T06:10:09.901Z,9.1
2022-11-01T06:11:26.123Z,11.9
2022-11-01T06:12:42.364Z,10
2022-11-01T06:13:58.615Z,6
2022-11-01T06:15:14.847Z,10.4
2022-11-01T06:16:31.088Z,15.9
2022-11-01T06:17:47.329Z,7.3
2022-11-01T06:19:03.568Z,7.3
2022-11-01T06:20:19.801Z,13.5
2022-11-01T06:21:36.043Z,10.5
2022-11-01T06:22:52.281Z,8.4
2022-11-01T06:24:08.528Z,13.8
2022-11-01T06:25:24.748Z,9.4
2022-11-01T06:26:41.107Z,8.9
2022-11-01T06:27:57.356Z,12
2022-11-01T06:29:13.602Z,8.5
2022-11-01T06:30:29.835Z,6.9
2022-11-01T06:31:46.080Z,9.4
2022-11-01T06:33:02.304Z,12.7
2022-11-01T06:34:18.555Z,10.1
2022-11-01T06:35:34.790Z,6.9
2022-11-01T06:36:51.024Z,10.8
2022-11-01T06:39:23.499Z,11.1
2022-11-01T06:40:39.734Z,9.9
2022-11-01T06:41:55.986Z,12.7
2022-11-01T06:43:11.244Z,12.7
2022-11-01T06:44:27.483Z,14
2022-11-01T06:45:43.707Z,12.5
2022-11-01T06:46:59.949Z,13.2
2022-11-01T06:48:16.181Z,9.4
2022-11-01T06:49:31.457Z,6.9
2022-11-01T06:50:47.686Z,7.7
2022-11-01T06:52:03.937Z,10.7
2022-11-01T06:53:20.168Z,15.4
2022-11-01T06:54:36.412Z,16.2
2022-11-01T06:55:52.646Z,8.5
2022-11-01T06:57:08.874Z,12.9
2022-11-01T06:58:25.113Z,8.3
2022-11-01T06:59:41.358Z,8.2
2022-11-01T07:00:57.599Z,11.3
2022-11-01T07:02:13.828Z,10.5
2022-11-01T07:03:30.075Z,10.8
2022-11-01T07:04:46.305Z,12.6
2022-11-01T07:06:01.567Z,10.3
2022-11-01T07:07:17.799Z,11.9
2022-11-01T07:08:34.046Z,11.6
2022-11-01T07:09:50.294Z,7.1
2022-11-01T07:11:06.515Z,11.1
2022-11-01T07:12:22.755Z,10.1
2022-11-01T07:13:39.005Z,13.7
2022-11-01T07:14:55.239Z,8.9
2022-11-01T07:16:11.482Z,9.9
2022-11-01T07:17:27.707Z,7
2022-11-01T07:18:43.956Z,7.9
2022-11-01T07:20:00.198Z,14.1
2022-11-01T07:21:16.427Z,11.1
2022-11-01T07:22:31.674Z,9.4
2022-11-01T07:23:47.911Z,11.5
2022-11-01T07:25:04.000Z,10.7
2022-11-01T07:26:20.407Z,9.7
2022-11-01T07:27:36.633Z,9.9
2022-11-01T07:28:52.876Z,13.8
2022-11-01T07:30:09.115Z,14.4
2022-11-01T07:31:25.361Z,9.1
2022-11-01T07:32:41.589Z,12.2
2022-11-01T07:33:57.838Z,6.7
2022-11-01T07:35:14.065Z,10.5
2022-11-01T07:36:30.298Z,9.8
2022-11-01T07:37:46.543Z,9.5
2022-11-01T07:39:01.788Z,9
2022-11-01T07:40:18.047Z,12.4
2022-11-01T07:41:34.273Z,9.5
2022-11-01T07:42:50.505Z,8.5
2022-11-01T07:44:06.758Z,10.2
2022-11-01T07:45:22.980Z,7.4
2022-11-01T07:46:39.232Z,7.8
2022-11-01T07:47:55.473Z,8.6
2022-11-01T07:49:11.707Z,8.4
2022-11-01T07:50:27.938Z,8.8
2022-11-01T07:51:44.183Z,7.6
2022-11-01T07:53:00.417Z,11.5
2022-11-01T07:54:16.651Z,12.2
2022-11-01T07:55:31.909Z,5.3
2022-11-01T07:56:48.157Z,11.1
2022-11-01T07:58:04.392Z,13.9
2022-11-01T07:59:20.639Z,7.2
2022-11-01T08:00:36.866Z,8.5
2022-11-01T08:01:53.115Z,10.1
2022-11-01T08:03:09.349Z,10.6
2022-11-01T08:04:25.578Z,7.7
2022-11-01T08:05:41.817Z,12.7
2022-11-01T08:06:58.065Z,7.5
2022-11-01T08:08:14.309Z,9.5
2022-11-01T08:09:30.531Z,10.4
2022-11-01T08:10:46.767Z,10.2
2022-11-01T08:12:02.023Z,8.6
2022-11-01T08:13:18.268Z,8.9
2022-11-01T08:14:34.507Z,10.3
2022-11-01T08:15:50.746Z,8.6
2022-11-01T08:17:06.989Z,8.7
2022-11-01T08:18:23.219Z,7.8
2022-11-01T08:19:39.460Z,6.9
2022-11-01T08:20:55.693Z,11
2022-11-01T08:22:11.947Z,9.2
2022-11-01T08:23:28.187Z,13.3
2022-11-01T08:24:44.406Z,12.4
2022-11-01T08:26:00.645Z,12
2022-11-01T08:27:16.882Z,13.5
2022-11-01T08:28:32.137Z,9.3
2022-11-01T08:29:48.394Z,12.2
2022-11-01T08:31:04.619Z,10.2
2022-11-01T08:32:20.862Z,11.7
2022-11-01T08:33:37.104Z,9.7
2022-11-01T08:34:53.334Z,8.8
2022-11-01T08:36:09.579Z,8.9
2022-11-01T08:37:25.806Z,11.4
2022-11-01T08:38:42.058Z,9.5
2022-11-01T08:39:58.285Z,8.7
2022-11-01T08:41:14.526Z,9
2022-11-01T08:42:30.775Z,14.6
2022-11-01T08:43:47.009Z,9.8
2022-11-01T08:45:02.259Z,15.7
2022-11-01T08:46:18.494Z,7.5
2022-11-01T08:47:34.741Z,8.3
2022-11-01T08:48:50.980Z,8.6
2022-11-01T08:50:07.208Z,9.3
2022-11-01T08:51:23.450Z,11.6
2022-11-01T08:52:39.693Z,9.5
2022-11-01T08:53:55.936Z,9.6
2022-11-01T08:55:12.165Z,7
2022-11-01T08:56:28.400Z,8.3
2022-11-01T08:57:44.641Z,7.6
2022-11-01T08:59:00.884Z,9.9
2022-11-01T09:00:17.120Z,9.9
2022-11-01T09:01:32.387Z,7.9
2022-11-01T09:02:48.616Z,8.3
2022-11-01T09:04:04.845Z,9.7
2022-11-01T09:05:21.083Z,12.8
2022-11-01T09:06:37.339Z,6.6
2022-11-01T09:07:53.578Z,11.3
2022-11-01T09:09:09.798Z,18.1
2022-11-01T09:10:26.044Z,11.1
2022-11-01T09:11:42.291Z,9.8
2022-11-01T09:12:58.521Z,8.4
2022-11-01T09:14:14.752Z,11.5
2022-11-01T09:15:31.003Z,13.7
2022-11-01T09:16:47.237Z,10.6
2022-11-01T09:18:02.497Z,8.3
2022-11-01T09:19:18.734Z,11.8
2022-11-01T09:20:34.962Z,12.3
2022-11-01T09:21:51.216Z,10.6
2022-11-01T09:23:07.440Z,7.5
2022-11-01T09:24:23.000Z,10.3
2022-11-01T09:25:39.914Z,8.2
2022-11-01T09:26:56.161Z,9.7
2022-11-01T09:28:12.397Z,8.8
2022-11-01T09:29:28.636Z,13.3
2022-11-01T09:30:44.871Z,6
2022-11-01T09:32:01.121Z,8.7
2022-11-01T09:33:17.344Z,9.2
2022-11-01T09:34:32.607Z,8.5
2022-11-01T09:35:48.840Z,10.1
2022-11-01T09:37:05.079Z,21.5
2022-11-01T09:38:21.322Z,9
2022-11-01T09:39:37.563Z,6.7
2022-11-01T09:40:53.790Z,10.1
2022-11-01T09:42:10.036Z,8.2
2022-11-01T09:43:26.270Z,7.7
2022-11-01T09:44:42.512Z,9
2022-11-01T09:45:58.752Z,8.2
2022-11-01T09:47:14.986Z,11
2022-11-01T09:48:31.218Z,9.2
2022-11-01T09:49:47.462Z,6.9
2022-11-01T09:51:02.713Z,9.7
2022-11-01T09:52:18.959Z,16.6
2022-11-01T09:53:35.207Z,7.2
2022-11-01T09:54:51.436Z,12
2022-11-01T09:56:07.674Z,6.3
2022-11-01T09:57:23.922Z,9.3
2022-11-01T09:58:40.151Z,9.2
2022-11-01T09:59:56.388Z,7.6
2022-11-01T10:01:12.619Z,9.7
2022-11-01T10:02:28.858Z,8.2
2022-11-01T10:03:45.103Z,8.3
2022-11-01T10:05:01.351Z,6.8
2022-11-01T10:06:17.576Z,13.4
2022-11-01T10:07:32.836Z,8.3
2022-11-01T10:08:49.070Z,7.8
2022-11-01T10:10:05.322Z,8
2022-11-01T10:11:21.547Z,6.2
2022-11-01T10:12:37.781Z,8.1
2022-11-01T10:13:54.024Z,7.9
2022-11-01T10:15:10.261Z,7.1
2022-11-01T10:16:26.505Z,6.7
2022-11-01T10:17:42.743Z,7.5
2022-11-01T10:18:58.974Z,11.1
2022-11-01T10:20:15.229Z,7.1
2022-11-01T10:21:31.461Z,8.4
2022-11-01T10:22:47.696Z,12.8
2022-11-01T10:24:02.945Z,9.4
2022-11-01T10:25:19.184Z,7.4
2022-11-01T10:26:35.424Z,7.7
2022-11-01T10:27:51.674Z,9.3
2022-11-01T10:29:07.903Z,9.4
2022-11-01T10:30:24.144Z,9.7
2022-11-01T10:31:40.392Z,9.1
2022-11-01T10:32:56.630Z,11.9
2022-11-01T10:34:12.860Z,6.9
2022-11-01T10:35:29.094Z,8.6
2022-11-01T10:36:45.342Z,12.2
2022-11-01T10:38:01.579Z,8.9
2022-11-01T10:39:17.808Z,18
2022-11-01T10:40:33.067Z,8.1
2022-11-01T10:41:49.306Z,10.7
2022-11-01T10:43:05.551Z,8.1
2022-11-01T10:44:21.779Z,4.7
2022-11-01T10:45:38.013Z,8.5
2022-11-01T10:46:54.270Z,8.2
2022-11-01T10:48:10.495Z,6.9
2022-11-01T10:49:26.738Z,5.5
2022-11-01T10:50:42.975Z,8.1
2022-11-01T10:51:59.213Z,7.3
2022-11-01T10:53:15.454Z,9.6
2022-11-01T10:54:31.696Z,12.2
2022-11-01T10:55:47.929Z,6.8
2022-11-01T10:57:03.181Z,9.7
2022-11-01T10:58:19.427Z,6.9
2022-11-01T10:59:35.664Z,6.7
2022-11-01T11:00:51.893Z,5.5
2022-11-01T11:02:08.128Z,6.7
2022-11-01T11:03:24.365Z,8.7
2022-11-01T11:04:39.639Z,9.2
2022-11-01T11:05:55.874Z,8.4
2022-11-01T11:07:12.121Z,5.5
2022-11-01T11:08:28.352Z,5.6
2022-11-01T11:09:44.584Z,4.9
2022-11-01T11:11:00.836Z,11.8
2022-11-01T11:12:17.076Z,5.9
2022-11-01T11:13:33.297Z,9.7
2022-11-01T11:14:49.539Z,4
2022-11-01T11:16:05.786Z,10.7
2022-11-01T11:17:22.023Z,4.3
2022-11-01T11:18:38.260Z,6.8
2022-11-01T11:19:54.500Z,7
2022-11-01T11:21:09.743Z,9.3
2022-11-01T11:22:25.993Z,11.7
2022-11-01T11:23:42.231Z,7.8
2022-11-01T11:24:58.476Z,7.1
2022-11-01T11:26:14.704Z,6.5
2022-11-01T11:27:30.946Z,8.3
2022-11-01T11:28:47.182Z,6.7
2022-11-01T11:30:03.409Z,3.3
2022-11-01T11:31:19.662Z,6.4
2022-11-01T11:32:35.900Z,6.7
2022-11-01T11:33:52.140Z,4.6
2022-11-01T11:35:08.383Z,3.8
2022-11-01T11:36:24.613Z,5.3
2022-11-01T11:37:39.863Z,3.9
2022-11-01T11:38:56.095Z,3.4
2022-11-01T11:40:12.343Z,4.7
2022-11-01T11:41:28.582Z,5.6
2022-11-01T11:42:44.814Z,8
2022-11-01T11:44:01.058Z,4.5
2022-11-01T11:45:17.288Z,5
2022-11-01T11:46:33.524Z,5.6
2022-11-01T11:47:49.762Z,4.7
2022-11-01T11:49:06.000Z,7.2
2022-11-01T11:50:22.258Z,7.4
2022-11-01T11:51:38.492Z,3.4
2022-11-01T11:52:54.717Z,2.6
2022-11-01T11:54:09.981Z,4.2
2022-11-01T11:55:26.229Z,4.1
2022-11-01T11:56:42.452Z,3.9
2022-11-01T11:57:58.692Z,10.2
2022-11-01T11:59:14.940Z,3.2
2022-11-01T12:00:31.165Z,3.3
2022-11-01T12:01:47.416Z,2.2
2022-11-01T12:03:03.647Z,3.2
2022-11-01T12:04:19.895Z,3.7
2022-11-01T12:05:36.132Z,4
2022-11-01T12:06:52.363Z,4.1
2022-11-01T12:08:08.609Z,3.8
2022-11-01T12:09:24.833Z,5.4
2022-11-01T12:10:40.090Z,2.2
2022-11-01T12:11:56.325Z,2.9
2022-11-01T12:13:12.563Z,2.9
2022-11-01T12:14:28.815Z,4.3
2022-11-01T12:15:45.047Z,1.6
2022-11-01T12:17:01.291Z,4.2
2022-11-01T12:18:17.516Z,4
2022-11-01T12:19:33.768Z,3.3
2022-11-01T12:20:49.997Z,4.4
2022-11-01T12:22:06.230Z,1.8
2022-11-01T12:23:22.469Z,0.9
2022-11-01T12:24:38.711Z,1.2
2022-11-01T12:25:54.946Z,2.4
2022-11-01T12:27:10.201Z,1.4
2022-11-01T12:28:26.457Z,2.5
2022-11-01T12:29:42.693Z,1.8
2022-11-01T12:30:58.917Z,3
2022-11-01T12:32:15.154Z,1.8
2022-11-01T12:39:52.598Z,1.6
2022-11-01T12:41:07.860Z,4.4
2022-11-01T12:42:23.101Z,2.7
2022-11-01T12:43:38.359Z,2.2
2022-11-01T12:44:53.622Z,2.4
2022-11-01T12:46:08.884Z,1
2022-11-01T12:47:24.145Z,1.4
2022-11-01T12:48:39.405Z,1.8
2022-11-01T12:49:54.656Z,2.5
2022-11-01T12:51:10.890Z,1.6
2022-11-01T12:52:27.119Z,2.3
2022-11-01T12:53:43.363Z,2.8
2022-11-01T12:54:59.601Z,3.2
2022-11-01T12:56:15.848Z,2.6
2022-11-01T12:57:32.089Z,2.8
2022-11-01T12:58:48.312Z,3.2
2022-11-01T13:00:04.554Z,3.3
2022-11-01T13:01:20.795Z,3.2
2022-11-01T13:02:36.057Z,2.3
2022-11-01T13:03:51.319Z,2.1
2022-11-01T13:05:07.555Z,1.9
2022-11-01T13:06:23.792Z,2.9
2022-11-01T13:07:40.025Z,2.7
2022-11-01T13:08:56.274Z,3.8
2022-11-01T13:10:12.506Z,2.7
2022-11-01T13:11:28.740Z,3
2022-11-01T13:12:44.985Z,2.4
2022-11-01T13:14:01.211Z,3.1
2022-11-01T13:15:17.446Z,1.9
2022-11-01T13:16:33.699Z,2.5
2022-11-01T13:21:38.658Z,3.2
2022-11-01T13:22:53.904Z,4.2
2022-11-01T13:24:09.158Z,3.6
2022-11-01T13:25:25.395Z,2.7
2022-11-01T13:26:41.636Z,1.8
2022-11-01T13:27:57.888Z,3.5
2022-11-01T13:29:14.113Z,1.9
2022-11-01T13:30:30.000Z,2
2022-11-01T13:31:46.584Z,5.8
2022-11-01T13:33:02.827Z,3
2022-11-01T13:34:19.077Z,2.8
2022-11-01T13:35:35.305Z,4.2
2022-11-01T13:36:50.561Z,2.6
2022-11-01T13:38:05.824Z,2.7
2022-11-01T13:39:22.055Z,2.4
2022-11-01T13:40:38.297Z,2.1
2022-11-01T13:41:54.535Z,2.3
2022-11-01T13:43:10.777Z,2.5
2022-11-01T13:44:27.009Z,2.8
2022-11-01T13:45:43.248Z,2.3
2022-11-01T13:46:59.495Z,3.1
2022-11-01T13:48:15.726Z,3
2022-11-01T13:49:31.972Z,2
2022-11-01T13:50:48.213Z,2
2022-11-01T13:52:04.441Z,1.9
2022-11-01T13:53:20.679Z,4.9
2022-11-01T13:54:35.931Z,3.1
2022-11-01T13:55:52.185Z,2.4
2022-11-01T13:57:08.406Z,2.6
2022-11-01T13:58:24.655Z,2.6
2022-11-01T13:59:40.898Z,4.4
2022-11-01T14:00:57.127Z,1.3
2022-11-01T14:02:13.359Z,5
2022-11-01T14:03:28.636Z,2.4
2022-11-01T14:04:43.872Z,3.7
2022-11-01T14:05:59.133Z,5.2
2022-11-01T14:07:14.392Z,2.1
2022-11-01T14:08:30.628Z,2.2
2022-11-01T14:09:46.880Z,2.1
2022-11-01T14:11:03.107Z,2.6
2022-11-01T14:12:19.348Z,3
2022-11-01T14:13:35.584Z,2.4
2022-11-01T14:14:51.833Z,4.4
2022-11-01T14:16:08.059Z,2.1
2022-11-01T14:17:24.306Z,6.2
2022-11-01T14:18:40.551Z,6
2022-11-01T14:19:56.783Z,4.2
2022-11-01T14:21:13.014Z,2.1
2022-11-01T14:22:29.255Z,2.7
2022-11-01T14:23:44.510Z,3.3
2022-11-01T14:25:00.743Z,6.8
2022-11-01T14:26:16.990Z,4.9
2022-11-01T14:27:33.229Z,8
2022-11-01T14:28:49.458Z,12.9
2022-11-01T14:30:05.705Z,5.1
2022-11-01T14:31:21.936Z,5.1
2022-11-01T14:32:37.200Z,1.7
2022-11-01T14:33:52.456Z,3.4
2022-11-01T14:35:08.685Z,4.2
2022-11-01T14:36:24.932Z,11.4
2022-11-01T14:37:41.179Z,8.3
2022-11-01T14:38:57.410Z,8.5
2022-11-01T14:40:13.658Z,5.3
2022-11-01T14:41:29.886Z,4.4
2022-11-01T14:42:46.133Z,10
2022-11-01T14:44:02.366Z,5.3
2022-11-01T14:45:18.594Z,4
2022-11-01T14:46:34.839Z,4.3
2022-11-01T14:47:51.077Z,3.6
2022-11-01T14:49:07.328Z,3.1
2022-11-01T14:50:22.581Z,4.4
2022-11-01T14:51:38.816Z,5.1
2022-11-01T14:52:55.058Z,4.5
2022-11-01T14:54:11.294Z,2.4
2022-11-01T14:55:27.527Z,3.2
2022-11-01T14:56:43.759Z,3.3
2022-11-01T14:57:59.995Z,5.7
2022-11-01T14:59:15.253Z,3.7
2022-11-01T15:00:30.516Z,12.8
2022-11-01T15:01:46.759Z,4.1
2022-11-01T15:03:02.995Z,4.8
2022-11-01T15:04:19.227Z,3.1
2022-11-01T15:05:35.479Z,4.4
2022-11-01T15:06:51.719Z,3.8
2022-11-01T15:08:07.953Z,3.1
2022-11-01T15:09:24.178Z,3.9
2022-11-01T15:10:40.416Z,5.4
2022-11-01T15:11:56.665Z,5.8
2022-11-01T15:13:12.910Z,6
2022-11-01T15:14:29.135Z,4.2
2022-11-01T15:15:45.376Z,4.1
2022-11-01T15:17:00.641Z,6.3
2022-11-01T15:18:16.870Z,6.1
2022-11-01T15:19:32.130Z,4
2022-11-01T15:20:48.376Z,3.8
2022-11-01T15:22:04.614Z,3.8
2022-11-01T15:23:20.843Z,6.4
2022-11-01T15:24:37.080Z,2.7
2022-11-01T15:25:52.345Z,3.7
2022-11-01T15:27:07.602Z,7.4
2022-11-01T15:28:22.871Z,4.7
2022-11-01T15:29:38.107Z,3.9
2022-11-01T15:30:53.374Z,4.2
2022-11-01T15:32:08.620Z,7.7
2022-11-01T15:33:24.875Z,4.4
2022-11-01T15:34:41.098Z,4.6
2022-11-01T15:35:57.334Z,5.2
2022-11-01T15:37:13.572Z,10.4
2022-11-01T15:38:29.812Z,17.1
2022-11-01T15:39:46.050Z,5.3
2022-11-01T15:41:02.307Z,6.5
2022-11-01T15:42:18.540Z,13.4
2022-11-01T15:43:34.784Z,9.7
2022-11-01T15:44:51.007Z,7
2022-11-01T15:46:07.246Z,15.2
2022-11-01T15:47:23.486Z,14.6
2022-11-01T15:48:38.747Z,14.3
2022-11-01T15:49:54.993Z,22.9
2022-11-01T15:51:11.227Z,17
2022-11-01T15:52:27.455Z,10.5
2022-11-01T15:53:43.709Z,9.3
2022-11-01T15:54:59.931Z,5.2
2022-11-01T15:56:16.182Z,5.5
2022-11-01T15:57:31.439Z,4.6
2022-11-01T15:58:46.682Z,4.6
2022-11-01T16:00:02.935Z,4.6
2022-11-01T16:01:19.168Z,4.2
2022-11-01T16:02:35.403Z,2
2022-11-01T16:03:51.636Z,3
2022-11-01T16:05:07.884Z,5.5
2022-11-01T16:06:24.118Z,4.1
2022-11-01T16:07:40.358Z,6.3
2022-11-01T16:08:56.592Z,3.7
2022-11-01T16:10:12.825Z,5.7
2022-11-01T16:11:29.070Z,3.2
2022-11-01T16:12:45.319Z,3.3
2022-11-01T16:14:01.540Z,6.1
2022-11-01T16:15:16.813Z,4.3
2022-11-01T16:16:33.046Z,3.6
2022-11-01T16:17:49.277Z,3.1
2022-11-01T16:19:05.584Z,3
2022-11-01T16:20:21.875Z,6.5
2022-11-01T16:21:38.160Z,2.6
2022-11-01T16:22:54.443Z,6.1
2022-11-01T16:24:09.776Z,3.5
2022-11-01T16:25:25.070Z,2.9
2022-11-01T16:26:40.391Z,3.6
2022-11-01T16:27:55.692Z,4.5
2022-11-01T16:29:11.004Z,4.7
2022-11-01T16:30:26.311Z,8.6
2022-11-01T16:31:41.631Z,4.6
2022-11-01T16:32:56.938Z,3.7
2022-11-01T16:34:13.234Z,7.3
2022-11-01T16:35:29.526Z,5.6
2022-11-01T16:36:45.821Z,4.2
2022-11-01T16:38:02.115Z,3.6
2022-11-01T16:39:18.414Z,5.2
2022-11-01T16:40:34.705Z,4.5
2022-11-01T16:41:50.998Z,5.7
2022-11-01T16:43:07.272Z,3.6
2022-11-01T16:44:23.583Z,3.8
2022-11-01T16:45:39.868Z,5.2
2022-11-01T16:46:56.169Z,5.8
2022-11-01T16:48:12.448Z,4.3
2022-11-01T16:49:27.754Z,7.5
2022-11-01T16:50:44.059Z,6.3
2022-11-01T16:52:00.351Z,2.8
2022-11-01T16:53:16.646Z,4.1
2022-11-01T16:54:32.935Z,2.6
2022-11-01T16:55:49.214Z,3
2022-11-01T16:57:05.518Z,3.4
2022-11-01T16:58:20.834Z,6.8
2022-11-01T16:59:36.133Z,6.6
2022-11-01T17:00:51.456Z,4
2022-11-01T17:02:06.765Z,6.4
2022-11-01T17:03:23.050Z,7.6
2022-11-01T17:04:39.347Z,10.5
2022-11-01T17:05:55.647Z,9.6
2022-11-01T17:07:11.937Z,7
2022-11-01T17:08:28.229Z,11.4
2022-11-01T17:09:44.514Z,14.2
2022-11-01T17:11:00.807Z,8
2022-11-01T17:12:17.089Z,9.6
2022-11-01T17:13:33.397Z,9.5
2022-11-01T17:14:49.683Z,7.8
2022-11-01T17:16:05.969Z,8.6
2022-11-01T17:17:22.274Z,9.2
2022-11-01T17:18:37.575Z,5.7
2022-11-01T17:19:53.876Z,5.8
2022-11-01T17:21:10.163Z,8.3
2022-11-01T17:22:26.462Z,7.3
2022-11-01T17:23:42.754Z,6.6
2022-11-01T17:24:59.038Z,8.3
2022-11-01T17:26:15.342Z,6.6
2022-11-01T17:27:30.644Z,6.5
2022-11-01T17:28:45.960Z,7.1
2022-11-01T17:30:02.249Z,4
2022-11-01T17:31:18.542Z,3.3
2022-11-01T17:32:34.840Z,4.9
2022-11-01T17:33:51.129Z,5.1
2022-11-01T17:35:07.417Z,8.8
2022-11-01T17:36:23.710Z,8.5